sensor_id;sensor_type;location;lat;lon;timestamp;P1;durP1;ratioP1;P2;durP2;ratioP2
13975;SDS011;7062;49.792;9.946;2024-01-15T00:01:44;37.67;;;18.13;;
13975;SDS011;7062;49.792;9.946;2024-01-15T00:04:10;37.22;;;18.25;;
13975;SDS011;7062;49.792;9.946;2024-01-15T00:06:36;35.57;;;18.00;;
13975;SDS011;7062;49.792;9.946;2024-01-15T00:09:02;41.73;;;19.33;;
13975;SDS011;7062;49.792;9.946;2024-01-15T00:11:27;41.20;;;17.60;;
13975;SDS011;7062;49.792;9.946;2024-01-15T00:13:53;36.93;;;16.97;;
13975;SDS011;7062;49.792;9.946;2024-01-15T00:16:19;33.77;;;16.37;;
13975;SDS011;7062;49.792;9.946;2024-01-15T00:18:44;39.60;;;19.47;;
13975;SDS011;7062;49.792;9.946;2024-01-15T00:21:10;32.63;;;15.47;;
13975;SDS011;7062;49.792;9.946;2024-01-15T00:23:36;32.97;;;18.23;;
13975;SDS011;7062;49.792;9.946;2024-01-15T00:26:01;33.90;;;17.97;;
13975;SDS011;7062;49.792;9.946;2024-01-15T00:28:27;35.70;;;16.77;;
13975;SDS011;7062;49.792;9.946;2024-01-15T00:30:53;32.13;;;16.27;;
13975;SDS011;7062;49.792;9.946;2024-01-15T00:33:18;34.70;;;15.83;;
13975;SDS011;7062;49.792;9.946;2024-01-15T00:35:44;31.83;;;16.03;;
13975;SDS011;7062;49.792;9.946;2024-01-15T00:38:10;36.90;;;17.67;;
13975;SDS011;7062;49.792;9.946;2024-01-15T00:40:35;38.30;;;17.03;;
13975;SDS011;7062;49.792;9.946;2024-01-15T00:43:01;34.23;;;15.93;;
13975;SDS011;7062;49.792;9.946;2024-01-15T00:45:27;30.08;;;16.92;;
13975;SDS011;7062;49.792;9.946;2024-01-15T00:47:53;32.77;;;15.80;;
13975;SDS011;7062;49.792;9.946;2024-01-15T00:50:21;36.90;;;16.08;;
13975;SDS011;7062;49.792;9.946;2024-01-15T00:52:47;33.10;;;15.53;;
13975;SDS011;7062;49.792;9.946;2024-01-15T00:55:12;32.17;;;16.27;;
13975;SDS011;7062;49.792;9.946;2024-01-15T00:57:39;35.90;;;16.10;;
13975;SDS011;7062;49.792;9.946;2024-01-15T01:00:05;30.85;;;16.30;;
13975;SDS011;7062;49.792;9.946;2024-01-15T01:02:31;37.45;;;16.30;;
13975;SDS011;7062;49.792;9.946;2024-01-15T01:04:57;33.60;;;17.43;;
13975;SDS011;7062;49.792;9.946;2024-01-15T01:07:22;35.53;;;16.77;;
13975;SDS011;7062;49.792;9.946;2024-01-15T01:09:48;32.77;;;16.00;;
13975;SDS011;7062;49.792;9.946;2024-01-15T01:12:15;34.33;;;16.95;;
13975;SDS011;7062;49.792;9.946;2024-01-15T01:14:41;31.90;;;16.70;;
13975;SDS011;7062;49.792;9.946;2024-01-15T01:17:07;32.50;;;16.50;;
13975;SDS011;7062;49.792;9.946;2024-01-15T01:19:33;40.43;;;17.57;;
13975;SDS011;7062;49.792;9.946;2024-01-15T01:21:58;38.60;;;16.87;;
13975;SDS011;7062;49.792;9.946;2024-01-15T01:24:24;34.57;;;17.03;;
13975;SDS011;7062;49.792;9.946;2024-01-15T01:26:49;31.57;;;17.73;;
13975;SDS011;7062;49.792;9.946;2024-01-15T01:29:15;34.07;;;16.43;;
13975;SDS011;7062;49.792;9.946;2024-01-15T01:31:44;33.17;;;16.17;;
13975;SDS011;7062;49.792;9.946;2024-01-15T01:34:10;29.55;;;15.60;;
13975;SDS011;7062;49.792;9.946;2024-01-15T01:36:36;36.80;;;17.40;;
13975;SDS011;7062;49.792;9.946;2024-01-15T01:39:01;30.77;;;14.87;;
13975;SDS011;7062;49.792;9.946;2024-01-15T01:41:27;38.67;;;16.67;;
13975;SDS011;7062;49.792;9.946;2024-01-15T01:43:53;33.83;;;16.30;;
13975;SDS011;7062;49.792;9.946;2024-01-15T01:46:18;32.80;;;16.30;;
13975;SDS011;7062;49.792;9.946;2024-01-15T01:48:44;31.57;;;16.33;;
13975;SDS011;7062;49.792;9.946;2024-01-15T01:51:10;35.60;;;15.83;;
13975;SDS011;7062;49.792;9.946;2024-01-15T01:53:36;30.52;;;14.77;;
13975;SDS011;7062;49.792;9.946;2024-01-15T01:56:03;29.80;;;14.88;;
13975;SDS011;7062;49.792;9.946;2024-01-15T01:58:29;28.05;;;14.80;;
13975;SDS011;7062;49.792;9.946;2024-01-15T02:00:57;30.48;;;15.80;;
13975;SDS011;7062;49.792;9.946;2024-01-15T02:03:24;25.98;;;13.77;;
13975;SDS011;7062;49.792;9.946;2024-01-15T02:05:50;32.88;;;15.95;;
13975;SDS011;7062;49.792;9.946;2024-01-15T02:08:17;29.55;;;13.07;;
13975;SDS011;7062;49.792;9.946;2024-01-15T02:10:43;24.43;;;13.90;;
13975;SDS011;7062;49.792;9.946;2024-01-15T02:13:09;27.13;;;14.23;;
13975;SDS011;7062;49.792;9.946;2024-01-15T02:15:34;28.27;;;13.63;;
13975;SDS011;7062;49.792;9.946;2024-01-15T02:18:01;25.83;;;13.87;;
13975;SDS011;7062;49.792;9.946;2024-01-15T02:20:29;28.15;;;14.85;;
13975;SDS011;7062;49.792;9.946;2024-01-15T02:23:05;23.67;;;13.13;;
13975;SDS011;7062;49.792;9.946;2024-01-15T02:25:41;23.13;;;12.13;;
13975;SDS011;7062;49.792;9.946;2024-01-15T02:28:09;25.55;;;12.93;;
13975;SDS011;7062;49.792;9.946;2024-01-15T02:30:39;24.30;;;13.55;;
13975;SDS011;7062;49.792;9.946;2024-01-15T02:33:07;20.98;;;11.85;;
13975;SDS011;7062;49.792;9.946;2024-01-15T02:35:33;19.73;;;10.43;;
13975;SDS011;7062;49.792;9.946;2024-01-15T02:38:03;25.95;;;13.00;;
13975;SDS011;7062;49.792;9.946;2024-01-15T02:40:30;21.10;;;12.65;;
13975;SDS011;7062;49.792;9.946;2024-01-15T02:42:56;21.20;;;12.32;;
13975;SDS011;7062;49.792;9.946;2024-01-15T02:45:23;22.30;;;12.87;;
13975;SDS011;7062;49.792;9.946;2024-01-15T02:47:48;21.05;;;11.98;;
13975;SDS011;7062;49.792;9.946;2024-01-15T02:50:14;23.92;;;12.63;;
13975;SDS011;7062;49.792;9.946;2024-01-15T02:52:41;21.53;;;11.37;;
13975;SDS011;7062;49.792;9.946;2024-01-15T02:55:07;20.23;;;10.65;;
13975;SDS011;7062;49.792;9.946;2024-01-15T02:57:33;19.90;;;10.88;;
13975;SDS011;7062;49.792;9.946;2024-01-15T02:59:59;13.60;;;9.27;;
13975;SDS011;7062;49.792;9.946;2024-01-15T03:02:25;21.33;;;11.63;;
13975;SDS011;7062;49.792;9.946;2024-01-15T03:04:51;18.23;;;9.30;;
13975;SDS011;7062;49.792;9.946;2024-01-15T03:07:17;18.10;;;10.60;;
13975;SDS011;7062;49.792;9.946;2024-01-15T03:09:42;20.02;;;10.20;;
13975;SDS011;7062;49.792;9.946;2024-01-15T03:12:08;20.73;;;10.37;;
13975;SDS011;7062;49.792;9.946;2024-01-15T03:14:35;19.17;;;10.60;;
13975;SDS011;7062;49.792;9.946;2024-01-15T03:17:01;16.92;;;10.30;;
13975;SDS011;7062;49.792;9.946;2024-01-15T03:19:26;19.48;;;11.25;;
13975;SDS011;7062;49.792;9.946;2024-01-15T03:21:52;17.83;;;9.93;;
13975;SDS011;7062;49.792;9.946;2024-01-15T03:24:18;18.13;;;10.80;;
13975;SDS011;7062;49.792;9.946;2024-01-15T03:26:44;19.37;;;10.33;;
13975;SDS011;7062;49.792;9.946;2024-01-15T03:29:09;16.07;;;10.20;;
13975;SDS011;7062;49.792;9.946;2024-01-15T03:31:35;17.70;;;11.23;;
13975;SDS011;7062;49.792;9.946;2024-01-15T03:34:01;18.33;;;9.67;;
13975;SDS011;7062;49.792;9.946;2024-01-15T03:36:26;18.90;;;10.87;;
13975;SDS011;7062;49.792;9.946;2024-01-15T03:38:52;18.10;;;9.70;;
13975;SDS011;7062;49.792;9.946;2024-01-15T03:41:18;21.30;;;10.70;;
13975;SDS011;7062;49.792;9.946;2024-01-15T03:43:43;22.67;;;11.33;;
13975;SDS011;7062;49.792;9.946;2024-01-15T03:46:09;16.80;;;10.13;;
13975;SDS011;7062;49.792;9.946;2024-01-15T03:48:34;20.37;;;11.43;;
13975;SDS011;7062;49.792;9.946;2024-01-15T03:51:00;20.40;;;10.47;;
13975;SDS011;7062;49.792;9.946;2024-01-15T03:53:26;21.10;;;10.83;;
13975;SDS011;7062;49.792;9.946;2024-01-15T03:55:51;18.70;;;10.57;;
13975;SDS011;7062;49.792;9.946;2024-01-15T03:58:17;19.43;;;11.50;;
13975;SDS011;7062;49.792;9.946;2024-01-15T04:00:45;17.50;;;10.68;;
13975;SDS011;7062;49.792;9.946;2024-01-15T04:03:11;20.80;;;11.23;;
13975;SDS011;7062;49.792;9.946;2024-01-15T04:05:36;18.20;;;10.83;;
13975;SDS011;7062;49.792;9.946;2024-01-15T04:08:03;16.92;;;10.27;;
13975;SDS011;7062;49.792;9.946;2024-01-15T04:10:29;20.88;;;11.00;;
13975;SDS011;7062;49.792;9.946;2024-01-15T04:12:55;18.90;;;10.00;;
13975;SDS011;7062;49.792;9.946;2024-01-15T04:15:21;19.87;;;10.80;;
13975;SDS011;7062;49.792;9.946;2024-01-15T04:17:46;20.93;;;10.73;;
13975;SDS011;7062;49.792;9.946;2024-01-15T04:20:12;16.37;;;9.80;;
13975;SDS011;7062;49.792;9.946;2024-01-15T04:22:37;17.20;;;9.73;;
13975;SDS011;7062;49.792;9.946;2024-01-15T04:25:03;15.47;;;9.63;;
13975;SDS011;7062;49.792;9.946;2024-01-15T04:27:30;16.52;;;10.20;;
13975;SDS011;7062;49.792;9.946;2024-01-15T04:29:55;14.50;;;8.60;;
13975;SDS011;7062;49.792;9.946;2024-01-15T04:32:21;20.13;;;10.03;;
13975;SDS011;7062;49.792;9.946;2024-01-15T04:34:47;21.20;;;11.97;;
13975;SDS011;7062;49.792;9.946;2024-01-15T04:37:13;17.63;;;9.73;;
13975;SDS011;7062;49.792;9.946;2024-01-15T04:39:39;19.40;;;10.75;;
13975;SDS011;7062;49.792;9.946;2024-01-15T04:42:04;16.47;;;10.23;;
13975;SDS011;7062;49.792;9.946;2024-01-15T04:44:30;18.67;;;11.80;;
13975;SDS011;7062;49.792;9.946;2024-01-15T04:46:56;18.07;;;10.13;;
13975;SDS011;7062;49.792;9.946;2024-01-15T04:49:21;22.13;;;11.67;;
13975;SDS011;7062;49.792;9.946;2024-01-15T04:51:47;17.83;;;10.17;;
13975;SDS011;7062;49.792;9.946;2024-01-15T04:54:13;18.30;;;10.77;;
13975;SDS011;7062;49.792;9.946;2024-01-15T04:56:42;19.15;;;11.05;;
13975;SDS011;7062;49.792;9.946;2024-01-15T04:59:09;20.08;;;10.25;;
13975;SDS011;7062;49.792;9.946;2024-01-15T05:01:35;20.87;;;10.53;;
13975;SDS011;7062;49.792;9.946;2024-01-15T05:04:00;23.85;;;10.55;;
13975;SDS011;7062;49.792;9.946;2024-01-15T05:06:26;27.40;;;11.33;;
13975;SDS011;7062;49.792;9.946;2024-01-15T05:08:52;25.63;;;11.97;;
13975;SDS011;7062;49.792;9.946;2024-01-15T05:11:17;24.63;;;12.53;;
13975;SDS011;7062;49.792;9.946;2024-01-15T05:13:43;20.37;;;10.87;;
13975;SDS011;7062;49.792;9.946;2024-01-15T05:16:09;18.27;;;10.47;;
13975;SDS011;7062;49.792;9.946;2024-01-15T05:18:34;24.77;;;12.37;;
13975;SDS011;7062;49.792;9.946;2024-01-15T05:21:02;20.65;;;12.00;;
13975;SDS011;7062;49.792;9.946;2024-01-15T05:23:28;23.45;;;12.32;;
13975;SDS011;7062;49.792;9.946;2024-01-15T05:25:53;20.73;;;11.17;;
13975;SDS011;7062;49.792;9.946;2024-01-15T05:28:19;22.80;;;12.37;;
13975;SDS011;7062;49.792;9.946;2024-01-15T05:30:45;21.80;;;11.53;;
13975;SDS011;7062;49.792;9.946;2024-01-15T05:33:10;17.40;;;11.77;;
13975;SDS011;7062;49.792;9.946;2024-01-15T05:35:36;20.67;;;11.77;;
13975;SDS011;7062;49.792;9.946;2024-01-15T05:38:02;22.33;;;10.93;;
13975;SDS011;7062;49.792;9.946;2024-01-15T05:40:27;22.83;;;12.13;;
13975;SDS011;7062;49.792;9.946;2024-01-15T05:42:53;20.83;;;10.33;;
13975;SDS011;7062;49.792;9.946;2024-01-15T05:45:19;21.17;;;10.97;;
13975;SDS011;7062;49.792;9.946;2024-01-15T05:47:44;19.60;;;12.00;;
13975;SDS011;7062;49.792;9.946;2024-01-15T05:50:10;22.47;;;12.00;;
13975;SDS011;7062;49.792;9.946;2024-01-15T05:52:36;20.07;;;10.63;;
13975;SDS011;7062;49.792;9.946;2024-01-15T05:55:01;18.33;;;10.20;;
13975;SDS011;7062;49.792;9.946;2024-01-15T05:57:27;23.43;;;11.13;;
13975;SDS011;7062;49.792;9.946;2024-01-15T05:59:53;25.53;;;11.13;;
13975;SDS011;7062;49.792;9.946;2024-01-15T06:02:19;20.50;;;10.20;;
13975;SDS011;7062;49.792;9.946;2024-01-15T06:04:45;23.43;;;10.63;;
13975;SDS011;7062;49.792;9.946;2024-01-15T06:07:11;17.50;;;10.67;;
13975;SDS011;7062;49.792;9.946;2024-01-15T06:09:36;19.67;;;10.73;;
13975;SDS011;7062;49.792;9.946;2024-01-15T06:12:03;20.45;;;9.73;;
13975;SDS011;7062;49.792;9.946;2024-01-15T06:14:29;24.67;;;12.00;;
13975;SDS011;7062;49.792;9.946;2024-01-15T06:16:55;20.67;;;11.03;;
13975;SDS011;7062;49.792;9.946;2024-01-15T06:19:21;20.27;;;11.47;;
13975;SDS011;7062;49.792;9.946;2024-01-15T06:21:46;17.30;;;10.47;;
13975;SDS011;7062;49.792;9.946;2024-01-15T06:24:12;23.27;;;12.43;;
13975;SDS011;7062;49.792;9.946;2024-01-15T06:26:38;22.45;;;10.82;;
13975;SDS011;7062;49.792;9.946;2024-01-15T06:29:04;21.00;;;12.03;;
13975;SDS011;7062;49.792;9.946;2024-01-15T06:31:29;19.67;;;11.03;;
13975;SDS011;7062;49.792;9.946;2024-01-15T06:33:55;21.10;;;12.17;;
13975;SDS011;7062;49.792;9.946;2024-01-15T06:36:21;24.90;;;12.60;;
13975;SDS011;7062;49.792;9.946;2024-01-15T06:38:46;18.77;;;11.47;;
13975;SDS011;7062;49.792;9.946;2024-01-15T06:41:12;18.97;;;10.53;;
13975;SDS011;7062;49.792;9.946;2024-01-15T06:43:38;24.40;;;11.40;;
13975;SDS011;7062;49.792;9.946;2024-01-15T06:46:04;19.40;;;10.43;;
13975;SDS011;7062;49.792;9.946;2024-01-15T06:48:29;21.17;;;12.13;;
13975;SDS011;7062;49.792;9.946;2024-01-15T06:50:55;20.67;;;11.73;;
13975;SDS011;7062;49.792;9.946;2024-01-15T06:53:21;17.33;;;10.80;;
13975;SDS011;7062;49.792;9.946;2024-01-15T06:55:47;18.47;;;11.17;;
13975;SDS011;7062;49.792;9.946;2024-01-15T06:58:14;25.13;;;11.68;;
13975;SDS011;7062;49.792;9.946;2024-01-15T07:00:39;19.83;;;11.37;;
13975;SDS011;7062;49.792;9.946;2024-01-15T07:03:05;20.33;;;10.80;;
13975;SDS011;7062;49.792;9.946;2024-01-15T07:05:32;14.68;;;10.38;;
13975;SDS011;7062;49.792;9.946;2024-01-15T07:07:58;17.60;;;9.70;;
13975;SDS011;7062;49.792;9.946;2024-01-15T07:10:23;17.03;;;10.10;;
13975;SDS011;7062;49.792;9.946;2024-01-15T07:12:49;19.60;;;9.97;;
13975;SDS011;7062;49.792;9.946;2024-01-15T07:15:15;19.43;;;11.07;;
13975;SDS011;7062;49.792;9.946;2024-01-15T07:17:41;23.07;;;10.70;;
13975;SDS011;7062;49.792;9.946;2024-01-15T07:20:07;19.20;;;10.02;;
13975;SDS011;7062;49.792;9.946;2024-01-15T07:22:35;16.38;;;10.95;;
13975;SDS011;7062;49.792;9.946;2024-01-15T07:25:01;18.55;;;10.07;;
13975;SDS011;7062;49.792;9.946;2024-01-15T07:27:27;19.50;;;10.57;;
13975;SDS011;7062;49.792;9.946;2024-01-15T07:29:53;18.10;;;10.50;;
13975;SDS011;7062;49.792;9.946;2024-01-15T07:32:18;19.40;;;10.83;;
13975;SDS011;7062;49.792;9.946;2024-01-15T07:34:45;19.33;;;10.35;;
13975;SDS011;7062;49.792;9.946;2024-01-15T07:37:11;20.63;;;10.77;;
13975;SDS011;7062;49.792;9.946;2024-01-15T07:39:36;21.53;;;11.13;;
13975;SDS011;7062;49.792;9.946;2024-01-15T07:42:03;16.73;;;9.85;;
13975;SDS011;7062;49.792;9.946;2024-01-15T07:44:29;18.17;;;10.77;;
13975;SDS011;7062;49.792;9.946;2024-01-15T07:46:54;18.53;;;10.60;;
13975;SDS011;7062;49.792;9.946;2024-01-15T07:49:20;17.60;;;10.60;;
13975;SDS011;7062;49.792;9.946;2024-01-15T07:51:46;25.60;;;11.60;;
13975;SDS011;7062;49.792;9.946;2024-01-15T07:54:11;22.57;;;11.13;;
13975;SDS011;7062;49.792;9.946;2024-01-15T07:56:52;17.57;;;10.60;;
13975;SDS011;7062;49.792;9.946;2024-01-15T07:59:19;22.23;;;10.73;;
13975;SDS011;7062;49.792;9.946;2024-01-15T08:01:44;19.03;;;10.30;;
13975;SDS011;7062;49.792;9.946;2024-01-15T08:04:10;16.80;;;9.70;;
13975;SDS011;7062;49.792;9.946;2024-01-15T08:06:37;19.58;;;10.00;;
13975;SDS011;7062;49.792;9.946;2024-01-15T08:09:03;17.97;;;9.50;;
13975;SDS011;7062;49.792;9.946;2024-01-15T08:11:29;18.80;;;10.43;;
13975;SDS011;7062;49.792;9.946;2024-01-15T08:13:55;20.48;;;11.35;;
13975;SDS011;7062;49.792;9.946;2024-01-15T08:16:21;20.50;;;9.40;;
13975;SDS011;7062;49.792;9.946;2024-01-15T08:18:47;19.20;;;10.80;;
13975;SDS011;7062;49.792;9.946;2024-01-15T08:21:12;21.40;;;9.90;;
13975;SDS011;7062;49.792;9.946;2024-01-15T08:23:38;16.77;;;9.57;;
13975;SDS011;7062;49.792;9.946;2024-01-15T08:26:04;17.83;;;9.27;;
13975;SDS011;7062;49.792;9.946;2024-01-15T08:28:30;13.60;;;9.57;;
13975;SDS011;7062;49.792;9.946;2024-01-15T08:30:55;18.00;;;9.93;;
13975;SDS011;7062;49.792;9.946;2024-01-15T08:33:21;21.87;;;9.17;;
13975;SDS011;7062;49.792;9.946;2024-01-15T08:35:47;18.23;;;10.33;;
13975;SDS011;7062;49.792;9.946;2024-01-15T08:38:13;16.40;;;9.80;;
13975;SDS011;7062;49.792;9.946;2024-01-15T08:40:38;19.20;;;11.47;;
13975;SDS011;7062;49.792;9.946;2024-01-15T08:43:04;13.30;;;8.67;;
13975;SDS011;7062;49.792;9.946;2024-01-15T08:45:31;17.25;;;10.50;;
13975;SDS011;7062;49.792;9.946;2024-01-15T08:47:57;15.77;;;9.80;;
13975;SDS011;7062;49.792;9.946;2024-01-15T08:50:23;19.60;;;9.43;;
13975;SDS011;7062;49.792;9.946;2024-01-15T08:52:48;14.83;;;8.93;;
13975;SDS011;7062;49.792;9.946;2024-01-15T08:55:14;18.13;;;8.90;;
13975;SDS011;7062;49.792;9.946;2024-01-15T08:57:40;17.67;;;9.93;;
13975;SDS011;7062;49.792;9.946;2024-01-15T09:00:06;16.13;;;8.73;;
13975;SDS011;7062;49.792;9.946;2024-01-15T09:02:34;16.73;;;9.63;;
13975;SDS011;7062;49.792;9.946;2024-01-15T09:05:01;18.33;;;10.15;;
13975;SDS011;7062;49.792;9.946;2024-01-15T09:07:29;14.75;;;8.98;;
13975;SDS011;7062;49.792;9.946;2024-01-15T09:09:55;17.80;;;9.27;;
13975;SDS011;7062;49.792;9.946;2024-01-15T09:12:20;17.17;;;7.93;;
13975;SDS011;7062;49.792;9.946;2024-01-15T09:14:47;15.38;;;8.68;;
13975;SDS011;7062;49.792;9.946;2024-01-15T09:17:12;16.03;;;9.47;;
13975;SDS011;7062;49.792;9.946;2024-01-15T09:19:38;14.47;;;8.93;;
13975;SDS011;7062;49.792;9.946;2024-01-15T09:22:05;14.25;;;8.63;;
13975;SDS011;7062;49.792;9.946;2024-01-15T09:24:30;16.90;;;11.30;;
13975;SDS011;7062;49.792;9.946;2024-01-15T09:26:56;16.10;;;9.10;;
13975;SDS011;7062;49.792;9.946;2024-01-15T09:29:22;17.43;;;8.70;;
13975;SDS011;7062;49.792;9.946;2024-01-15T09:31:48;17.65;;;9.65;;
13975;SDS011;7062;49.792;9.946;2024-01-15T09:34:15;14.38;;;9.10;;
13975;SDS011;7062;49.792;9.946;2024-01-15T09:36:41;16.35;;;10.07;;
13975;SDS011;7062;49.792;9.946;2024-01-15T09:39:07;16.10;;;9.13;;
13975;SDS011;7062;49.792;9.946;2024-01-15T09:41:36;14.68;;;9.57;;
13975;SDS011;7062;49.792;9.946;2024-01-15T09:44:06;14.48;;;9.15;;
13975;SDS011;7062;49.792;9.946;2024-01-15T09:46:34;15.68;;;9.27;;
13975;SDS011;7062;49.792;9.946;2024-01-15T09:49:00;15.97;;;8.67;;
13975;SDS011;7062;49.792;9.946;2024-01-15T09:51:32;15.82;;;10.05;;
13975;SDS011;7062;49.792;9.946;2024-01-15T09:53:58;16.17;;;8.85;;
13975;SDS011;7062;49.792;9.946;2024-01-15T09:56:24;15.37;;;8.77;;
13975;SDS011;7062;49.792;9.946;2024-01-15T09:58:50;15.27;;;9.73;;
13975;SDS011;7062;49.792;9.946;2024-01-15T10:01:20;16.85;;;10.07;;
13975;SDS011;7062;49.792;9.946;2024-01-15T10:03:46;17.20;;;9.13;;
13975;SDS011;7062;49.792;9.946;2024-01-15T10:06:14;13.67;;;8.73;;
13975;SDS011;7062;49.792;9.946;2024-01-15T10:08:47;15.23;;;9.73;;
13975;SDS011;7062;49.792;9.946;2024-01-15T10:11:16;16.30;;;9.95;;
13975;SDS011;7062;49.792;9.946;2024-01-15T10:13:44;15.47;;;9.73;;
13975;SDS011;7062;49.792;9.946;2024-01-15T10:16:10;13.73;;;9.45;;
13975;SDS011;7062;49.792;9.946;2024-01-15T10:18:36;17.23;;;9.80;;
13975;SDS011;7062;49.792;9.946;2024-01-15T10:21:04;16.02;;;10.32;;
13975;SDS011;7062;49.792;9.946;2024-01-15T10:23:32;13.32;;;9.52;;
13975;SDS011;7062;49.792;9.946;2024-01-15T10:25:58;14.02;;;9.43;;
13975;SDS011;7062;49.792;9.946;2024-01-15T10:28:25;16.17;;;9.80;;
13975;SDS011;7062;49.792;9.946;2024-01-15T10:30:52;17.60;;;9.73;;
13975;SDS011;7062;49.792;9.946;2024-01-15T10:33:21;15.10;;;9.90;;
13975;SDS011;7062;49.792;9.946;2024-01-15T10:35:54;18.50;;;10.52;;
13975;SDS011;7062;49.792;9.946;2024-01-15T10:38:21;17.02;;;10.02;;
13975;SDS011;7062;49.792;9.946;2024-01-15T10:40:48;14.35;;;8.93;;
13975;SDS011;7062;49.792;9.946;2024-01-15T10:43:16;13.73;;;10.52;;
13975;SDS011;7062;49.792;9.946;2024-01-15T10:45:45;18.55;;;10.38;;
13975;SDS011;7062;49.792;9.946;2024-01-15T10:48:12;13.38;;;9.25;;
13975;SDS011;7062;49.792;9.946;2024-01-15T10:50:38;14.63;;;9.88;;
13975;SDS011;7062;49.792;9.946;2024-01-15T10:53:04;13.48;;;8.95;;
13975;SDS011;7062;49.792;9.946;2024-01-15T10:55:31;14.45;;;8.95;;
13975;SDS011;7062;49.792;9.946;2024-01-15T10:57:58;16.70;;;10.32;;
13975;SDS011;7062;49.792;9.946;2024-01-15T11:00:24;12.75;;;8.77;;
13975;SDS011;7062;49.792;9.946;2024-01-15T11:02:51;13.75;;;8.48;;
13975;SDS011;7062;49.792;9.946;2024-01-15T11:05:20;12.07;;;9.23;;
13975;SDS011;7062;49.792;9.946;2024-01-15T11:07:47;11.75;;;7.63;;
13975;SDS011;7062;49.792;9.946;2024-01-15T11:11:00;12.18;;;7.43;;
13975;SDS011;7062;49.792;9.946;2024-01-15T11:13:07;11.77;;;7.93;;
13975;SDS011;7062;49.792;9.946;2024-01-15T11:15:57;14.88;;;8.85;;
13975;SDS011;7062;49.792;9.946;2024-01-15T11:18:36;13.07;;;8.30;;
13975;SDS011;7062;49.792;9.946;2024-01-15T11:24:00;11.75;;;8.50;;
13975;SDS011;7062;49.792;9.946;2024-01-15T11:34:21;12.63;;;9.40;;
13975;SDS011;7062;49.792;9.946;2024-01-15T11:37:06;14.15;;;8.85;;
13975;SDS011;7062;49.792;9.946;2024-01-15T11:41:58;14.40;;;9.10;;
13975;SDS011;7062;49.792;9.946;2024-01-15T11:44:26;12.35;;;8.02;;
13975;SDS011;7062;49.792;9.946;2024-01-15T11:47:02;16.10;;;8.60;;
13975;SDS011;7062;49.792;9.946;2024-01-15T11:52:36;13.48;;;7.93;;
13975;SDS011;7062;49.792;9.946;2024-01-15T12:00:17;14.05;;;8.65;;
13975;SDS011;7062;49.792;9.946;2024-01-15T12:02:44;13.77;;;9.77;;
13975;SDS011;7062;49.792;9.946;2024-01-15T12:05:12;13.57;;;9.18;;
13975;SDS011;7062;49.792;9.946;2024-01-15T12:07:39;14.40;;;8.25;;
13975;SDS011;7062;49.792;9.946;2024-01-15T12:10:08;13.20;;;8.18;;
13975;SDS011;7062;49.792;9.946;2024-01-15T12:15:39;15.15;;;8.80;;
13975;SDS011;7062;49.792;9.946;2024-01-15T12:18:07;11.90;;;9.15;;
13975;SDS011;7062;49.792;9.946;2024-01-15T12:20:34;11.27;;;7.78;;
13975;SDS011;7062;49.792;9.946;2024-01-15T12:23:00;12.03;;;8.07;;
13975;SDS011;7062;49.792;9.946;2024-01-15T12:25:28;12.93;;;8.85;;
13975;SDS011;7062;49.792;9.946;2024-01-15T12:27:55;11.68;;;8.40;;
13975;SDS011;7062;49.792;9.946;2024-01-15T12:30:21;12.02;;;8.10;;
13975;SDS011;7062;49.792;9.946;2024-01-15T12:32:47;10.20;;;7.80;;
13975;SDS011;7062;49.792;9.946;2024-01-15T12:35:13;12.83;;;7.83;;
13975;SDS011;7062;49.792;9.946;2024-01-15T12:37:40;10.75;;;7.88;;
13975;SDS011;7062;49.792;9.946;2024-01-15T12:40:07;11.77;;;7.80;;
13975;SDS011;7062;49.792;9.946;2024-01-15T12:42:34;14.27;;;8.38;;
13975;SDS011;7062;49.792;9.946;2024-01-15T12:45:07;12.45;;;8.40;;
13975;SDS011;7062;49.792;9.946;2024-01-15T12:47:34;13.18;;;7.57;;
13975;SDS011;7062;49.792;9.946;2024-01-15T12:50:00;11.15;;;6.97;;
13975;SDS011;7062;49.792;9.946;2024-01-15T12:52:28;9.03;;;6.00;;
13975;SDS011;7062;49.792;9.946;2024-01-15T12:54:55;9.68;;;6.82;;
13975;SDS011;7062;49.792;9.946;2024-01-15T12:57:21;7.47;;;5.07;;
13975;SDS011;7062;49.792;9.946;2024-01-15T12:59:47;7.03;;;5.32;;
13975;SDS011;7062;49.792;9.946;2024-01-15T13:02:13;7.82;;;5.50;;
13975;SDS011;7062;49.792;9.946;2024-01-15T13:04:39;8.20;;;5.57;;
13975;SDS011;7062;49.792;9.946;2024-01-15T13:07:08;8.45;;;6.03;;
13975;SDS011;7062;49.792;9.946;2024-01-15T13:09:34;9.43;;;5.35;;
13975;SDS011;7062;49.792;9.946;2024-01-15T13:12:03;5.72;;;4.32;;
13975;SDS011;7062;49.792;9.946;2024-01-15T13:14:30;6.88;;;5.07;;
13975;SDS011;7062;49.792;9.946;2024-01-15T13:16:56;6.97;;;4.67;;
13975;SDS011;7062;49.792;9.946;2024-01-15T13:19:23;6.32;;;5.07;;
13975;SDS011;7062;49.792;9.946;2024-01-15T13:21:49;9.73;;;5.80;;
13975;SDS011;7062;49.792;9.946;2024-01-15T13:24:16;8.23;;;5.15;;
13975;SDS011;7062;49.792;9.946;2024-01-15T13:26:42;6.65;;;4.28;;
13975;SDS011;7062;49.792;9.946;2024-01-15T13:29:08;7.05;;;4.72;;
13975;SDS011;7062;49.792;9.946;2024-01-15T13:31:34;6.53;;;4.97;;
13975;SDS011;7062;49.792;9.946;2024-01-15T13:34:00;10.33;;;5.57;;
13975;SDS011;7062;49.792;9.946;2024-01-15T13:36:26;6.53;;;4.47;;
13975;SDS011;7062;49.792;9.946;2024-01-15T13:38:52;7.15;;;5.25;;
13975;SDS011;7062;49.792;9.946;2024-01-15T13:41:19;8.80;;;5.38;;
13975;SDS011;7062;49.792;9.946;2024-01-15T13:43:49;7.10;;;5.03;;
13975;SDS011;7062;49.792;9.946;2024-01-15T13:46:16;7.35;;;5.28;;
13975;SDS011;7062;49.792;9.946;2024-01-15T13:48:42;8.70;;;5.32;;
13975;SDS011;7062;49.792;9.946;2024-01-15T13:51:08;5.70;;;4.43;;
13975;SDS011;7062;49.792;9.946;2024-01-15T13:53:34;6.45;;;5.10;;
13975;SDS011;7062;49.792;9.946;2024-01-15T13:56:00;7.40;;;4.40;;
13975;SDS011;7062;49.792;9.946;2024-01-15T13:58:25;6.73;;;5.60;;
13975;SDS011;7062;49.792;9.946;2024-01-15T14:00:51;8.33;;;5.43;;
13975;SDS011;7062;49.792;9.946;2024-01-15T14:03:17;6.33;;;4.97;;
13975;SDS011;7062;49.792;9.946;2024-01-15T14:05:44;8.82;;;5.35;;
13975;SDS011;7062;49.792;9.946;2024-01-15T14:08:10;8.80;;;5.47;;
13975;SDS011;7062;49.792;9.946;2024-01-15T14:10:35;8.67;;;4.97;;
13975;SDS011;7062;49.792;9.946;2024-01-15T14:13:02;5.88;;;5.15;;
13975;SDS011;7062;49.792;9.946;2024-01-15T14:15:28;7.30;;;5.22;;
13975;SDS011;7062;49.792;9.946;2024-01-15T14:17:54;6.63;;;4.53;;
13975;SDS011;7062;49.792;9.946;2024-01-15T14:20:20;5.57;;;4.47;;
13975;SDS011;7062;49.792;9.946;2024-01-15T14:22:45;9.83;;;5.40;;
13975;SDS011;7062;49.792;9.946;2024-01-15T14:25:11;6.67;;;4.63;;
13975;SDS011;7062;49.792;9.946;2024-01-15T14:27:37;7.23;;;4.80;;
13975;SDS011;7062;49.792;9.946;2024-01-15T14:30:02;5.90;;;4.27;;
13975;SDS011;7062;49.792;9.946;2024-01-15T14:32:30;7.68;;;5.65;;
13975;SDS011;7062;49.792;9.946;2024-01-15T14:34:56;8.27;;;4.80;;
13975;SDS011;7062;49.792;9.946;2024-01-15T14:37:22;8.00;;;5.10;;
13975;SDS011;7062;49.792;9.946;2024-01-15T14:39:47;7.27;;;5.40;;
13975;SDS011;7062;49.792;9.946;2024-01-15T14:42:13;6.77;;;5.57;;
13975;SDS011;7062;49.792;9.946;2024-01-15T14:44:38;8.23;;;5.63;;
13975;SDS011;7062;49.792;9.946;2024-01-15T14:47:06;8.57;;;5.45;;
13975;SDS011;7062;49.792;9.946;2024-01-15T14:49:32;7.82;;;5.40;;
13975;SDS011;7062;49.792;9.946;2024-01-15T14:51:58;9.40;;;6.77;;
13975;SDS011;7062;49.792;9.946;2024-01-15T14:54:24;13.67;;;6.40;;
13975;SDS011;7062;49.792;9.946;2024-01-15T14:56:50;9.23;;;5.10;;
13975;SDS011;7062;49.792;9.946;2024-01-15T14:59:16;7.22;;;6.05;;
13975;SDS011;7062;49.792;9.946;2024-01-15T15:01:42;8.73;;;5.53;;
13975;SDS011;7062;49.792;9.946;2024-01-15T15:04:08;10.23;;;6.37;;